Time;durP1;ratioP1;P1;durP2;ratioP2;P2;SDS_P1;SDS_P2;PMS_P1;PMS_P2;Temp;Humidity;BMP_temperature;BMP_pressure;BME280_temperature;BME280_humidity;BME280_pressure;Samples;Min_cycle;Max_cycle;Signal;HPM_P1;HPM_P2
2022/05/07 00:02:06;;;;;;;19.55;11.38;;;;;;;15.47;62.07;102240.00;5095517;28;20020;-62
2022/05/07 00:04:33;;;;;;;18.77;10.82;;;;;;;15.47;61.87;102231.13;5095777;28;20024;-62
2022/05/07 00:06:58;;;;;;;16.98;10.80;;;;;;;15.35;62.43;102226.53;5095986;28;20020;-62
2022/05/07 00:09:24;;;;;;;20.70;10.88;;;;;;;15.38;62.22;102223.00;5095419;28;20077;-62
2022/05/07 00:11:49;;;;;;;20.05;11.00;;;;;;;15.27;62.47;102223.75;5095579;28;20473;-62
2022/05/07 00:14:15;;;;;;;19.55;11.13;;;;;;;15.29;62.49;102223.78;5095618;28;20027;-62
2022/05/07 00:19:24;;;;;;;16.27;10.48;;;;;;;15.15;62.75;102218.25;5095515;28;20512;-62
2022/05/07 00:21:50;;;;;;;20.77;11.60;;;;;;;15.05;63.09;102218.13;5095282;28;20024;-62
2022/05/07 00:24:15;;;;;;;15.60;11.13;;;;;;;14.96;63.32;102217.09;5095390;28;20031;-62
2022/05/07 00:26:41;;;;;;;19.25;11.38;;;;;;;14.93;63.54;102209.06;5095228;28;20024;-62
2022/05/07 00:29:06;;;;;;;17.52;11.70;;;;;;;14.90;63.64;102216.09;5094922;28;20024;-62
2022/05/07 00:31:31;;;;;;;20.08;11.90;;;;;;;14.90;63.48;102211.72;5095102;28;20498;-62
2022/05/07 00:33:57;;;;;;;16.17;11.23;;;;;;;14.89;63.59;102214.31;5094360;28;20101;-62
2022/05/07 00:36:23;;;;;;;20.55;11.15;;;;;;;15.00;63.70;102215.38;5095106;28;20057;-62
2022/05/07 00:38:48;;;;;;;14.57;11.25;;;;;;;15.02;62.97;102218.94;5094980;28;20024;-62
2022/05/07 00:41:14;;;;;;;18.52;10.77;;;;;;;14.98;62.87;102219.78;5094862;28;20110;-62
2022/05/07 00:43:40;;;;;;;15.80;10.93;;;;;;;15.03;63.05;102211.00;5094628;28;20044;-62
2022/05/07 00:46:06;;;;;;;14.70;10.95;;;;;;;15.03;62.81;102207.41;5094601;28;20024;-62
2022/05/07 00:48:32;;;;;;;16.85;10.82;;;;;;;14.93;63.83;102205.50;5094800;28;20032;-62
2022/05/07 00:53:44;;;;;;;14.95;10.77;;;;;;;14.96;63.64;102202.91;5094709;28;20047;-62
2022/05/07 00:56:09;;;;;;;15.05;10.68;;;;;;;15.06;63.34;102202.16;5094584;28;20024;-62
2022/05/07 00:58:35;;;;;;;19.13;10.95;;;;;;;15.16;63.16;102208.50;5094415;28;20099;-62
2022/05/07 01:01:01;;;;;;;18.75;10.90;;;;;;;15.15;62.88;102188.97;5094770;28;20039;-62
2022/05/07 01:03:26;;;;;;;20.10;10.85;;;;;;;15.14;62.77;102197.81;5094430;28;20024;-62
2022/05/07 01:05:53;;;;;;;16.42;10.90;;;;;;;15.10;63.03;102205.75;5094719;28;20107;-62
2022/05/07 01:08:20;;;;;;;16.52;10.48;;;;;;;15.13;63.01;102209.34;5094926;28;20024;-62
2022/05/07 01:10:47;;;;;;;17.15;10.15;;;;;;;14.96;63.18;102206.47;5094474;28;20032;-62
2022/05/07 01:13:12;;;;;;;14.65;10.68;;;;;;;14.69;64.00;102190.97;5094059;28;20397;-63
2022/05/07 01:15:48;;;;;;;15.63;10.63;;;;;;;14.51;64.78;102198.66;5094219;28;20024;-62
2022/05/07 01:18:17;;;;;;;18.95;10.57;;;;;;;14.36;65.23;102201.03;5094258;28;20051;-62
2022/05/07 01:20:43;;;;;;;16.92;10.80;;;;;;;14.36;65.25;102191.31;5094082;28;20032;-62
2022/05/07 01:23:09;;;;;;;14.98;10.27;;;;;;;14.36;64.82;102193.06;5094156;28;20031;-62
2022/05/07 01:25:35;;;;;;;15.25;10.38;;;;;;;14.44;65.06;102196.75;5094305;28;20027;-62
2022/05/07 01:28:00;;;;;;;18.58;10.77;;;;;;;14.51;64.63;102190.69;5093810;28;20024;-62
2022/05/07 01:30:25;;;;;;;18.30;10.77;;;;;;;14.50;64.85;102186.22;5093872;28;20492;-62
2022/05/07 01:32:52;;;;;;;17.55;10.95;;;;;;;14.45;65.07;102190.56;5093880;28;20032;-62
2022/05/07 01:35:17;;;;;;;17.02;11.10;;;;;;;14.52;64.82;102171.22;5093835;28;20031;-62
2022/05/07 01:37:43;;;;;;;15.73;11.10;;;;;;;14.62;64.51;102180.22;5093636;28;20543;-62
2022/05/07 01:40:09;;;;;;;14.77;10.15;;;;;;;14.69;64.42;102175.03;5093931;28;20401;-62
2022/05/07 01:42:34;;;;;;;17.17;10.75;;;;;;;14.65;64.57;102183.81;5093596;28;20047;-62
2022/05/07 01:45:01;;;;;;;14.75;11.02;;;;;;;14.62;64.70;102175.78;5093197;28;20362;-62
2022/05/07 01:50:10;;;;;;;14.75;10.13;;;;;;;14.61;64.41;102182.00;5093787;28;20042;-62
2022/05/07 01:52:35;;;;;;;15.70;10.68;;;;;;;14.60;64.31;102177.50;5093280;28;20044;-62
2022/05/07 01:55:01;;;;;;;15.95;10.98;;;;;;;14.63;64.31;102174.91;5093528;28;20359;-62
2022/05/07 01:57:26;;;;;;;15.88;10.45;;;;;;;14.68;64.22;102177.63;5093296;28;20031;-62
2022/05/07 01:59:51;;;;;;;19.30;11.15;;;;;;;14.69;64.03;102176.78;5093696;28;20089;-62
2022/05/07 02:02:17;;;;;;;18.85;11.77;;;;;;;14.71;63.93;102175.03;5093439;28;20388;-62
2022/05/07 02:04:42;;;;;;;18.45;11.30;;;;;;;14.72;64.40;102169.72;5075262;28;20034;-62
2022/05/07 02:07:08;;;;;;;18.55;11.82;;;;;;;14.69;64.40;102169.69;5093571;28;20110;-62
2022/05/07 02:09:35;;;;;;;16.23;11.98;;;;;;;14.68;64.31;102167.88;5093217;28;20109;-62
2022/05/07 02:12:01;;;;;;;16.95;11.27;;;;;;;14.58;64.67;102170.41;5093169;28;20024;-62
2022/05/07 02:14:26;;;;;;;15.75;11.43;;;;;;;14.53;64.93;102170.34;5093224;28;20020;-62
2022/05/07 02:16:51;;;;;;;14.90;10.75;;;;;;;14.44;64.99;102168.38;5093281;28;20024;-62
2022/05/07 02:19:16;;;;;;;16.85;10.90;;;;;;;14.46;64.70;102163.06;5093314;28;20021;-62
2022/05/07 02:21:42;;;;;;;14.85;11.00;;;;;;;14.43;64.99;102165.69;5093277;28;20448;-62
2022/05/07 02:24:07;;;;;;;16.95;11.43;;;;;;;14.42;65.15;102170.09;5093146;28;20027;-62
2022/05/07 02:26:33;;;;;;;17.02;11.55;;;;;;;14.47;65.32;102160.47;5093172;28;20419;-62
2022/05/07 02:28:58;;;;;;;17.42;11.45;;;;;;;14.51;64.91;102159.66;5093006;28;20028;-62
2022/05/07 02:31:23;;;;;;;16.25;11.30;;;;;;;14.57;65.26;102160.63;5093229;28;20042;-62
2022/05/07 02:33:50;;;;;;;17.38;11.20;;;;;;;14.64;64.56;102163.38;5092955;28;20023;-62
2022/05/07 02:36:15;;;;;;;15.90;11.82;;;;;;;14.57;64.53;102161.53;5093126;28;20035;-62
2022/05/07 02:38:41;;;;;;;17.05;11.73;;;;;;;14.59;64.66;102161.53;5093057;28;20024;-62
2022/05/07 02:43:50;;;;;;;19.02;12.60;;;;;;;14.62;64.47;102150.97;5093375;28;20042;-62
2022/05/07 02:46:15;;;;;;;16.50;12.35;;;;;;;14.62;64.29;102151.84;5093114;28;20016;-62
2022/05/07 02:48:44;;;;;;;15.25;11.90;;;;;;;14.56;64.63;102146.44;5093068;28;20389;-62
2022/05/07 02:51:10;;;;;;;19.77;12.65;;;;;;;14.53;64.78;102155.25;5092730;28;20098;-62
2022/05/07 02:53:35;;;;;;;20.65;13.45;;;;;;;14.57;64.64;102153.53;5092954;28;20024;-62
2022/05/07 02:56:00;;;;;;;16.73;12.73;;;;;;;14.48;64.77;102148.06;5092863;28;20389;-63
2022/05/07 02:58:26;;;;;;;21.27;13.55;;;;;;;14.53;64.36;102146.38;5096340;28;20032;-62
2022/05/07 03:00:53;;;;;;;16.25;12.48;;;;;;;14.51;64.57;102146.34;5097063;28;20100;-62
2022/05/07 03:03:18;;;;;;;19.92;14.00;;;;;;;14.49;64.84;102149.88;5096813;28;20530;-62
2022/05/07 03:05:44;;;;;;;18.73;13.63;;;;;;;14.41;64.94;102151.47;5096778;28;20032;-62
2022/05/07 03:08:09;;;;;;;18.00;13.88;;;;;;;14.25;65.56;102147.66;5096693;28;20031;-62
2022/05/07 03:10:34;;;;;;;18.27;13.35;;;;;;;14.20;65.44;102146.69;5096552;28;20498;-62
2022/05/07 03:13:00;;;;;;;20.38;13.80;;;;;;;14.21;65.77;102141.41;5096455;28;20115;-62
2022/05/07 03:15:25;;;;;;;22.65;14.25;;;;;;;14.13;65.84;102139.47;5096628;28;20077;-62
2022/05/07 03:17:52;;;;;;;18.98;13.40;;;;;;;14.07;65.90;102148.25;5096697;28;20020;-62
2022/05/07 03:20:18;;;;;;;18.00;13.85;;;;;;;14.00;66.08;102141.03;5096539;28;20115;-62
2022/05/07 03:22:46;;;;;;;18.08;13.15;;;;;;;14.03;66.21;102147.31;5096295;28;20509;-62
2022/05/07 03:25:12;;;;;;;19.58;13.35;;;;;;;13.97;66.82;102143.66;5096320;28;20024;-62
2022/05/07 03:27:38;;;;;;;16.40;13.40;;;;;;;13.96;66.51;102152.47;5096038;28;20123;-62
2022/05/07 03:30:06;;;;;;;16.58;12.80;;;;;;;13.98;66.79;102153.41;5096202;28;20103;-62
2022/05/07 03:32:33;;;;;;;20.63;13.82;;;;;;;14.06;66.46;102145.59;5096168;28;20028;-62
2022/05/07 03:34:58;;;;;;;22.30;13.77;;;;;;;14.08;66.35;102139.41;5096076;28;20027;-62
2022/05/07 03:37:24;;;;;;;20.42;13.30;;;;;;;14.10;66.28;102143.00;5096198;28;20103;-62
2022/05/07 03:39:50;;;;;;;16.70;13.25;;;;;;;14.14;66.23;102151.94;5096032;28;20401;-62
2022/05/07 03:42:16;;;;;;;17.27;13.55;;;;;;;14.16;66.13;102150.19;5096015;28;20110;-63
2022/05/07 03:44:42;;;;;;;19.23;13.45;;;;;;;14.16;66.74;102150.19;5095867;28;20118;-62
2022/05/07 03:47:07;;;;;;;18.23;13.75;;;;;;;14.19;66.59;102161.75;5096136;28;20107;-62
2022/05/07 03:49:33;;;;;;;18.10;13.65;;;;;;;14.23;66.79;102160.06;5095814;28;20024;-62
2022/05/07 03:54:43;;;;;;;18.67;13.20;;;;;;;14.21;66.42;102153.81;5095996;28;20055;-62
2022/05/07 03:57:09;;;;;;;21.02;13.30;;;;;;;14.17;66.68;102158.16;5095516;28;20020;-62
2022/05/07 03:59:35;;;;;;;18.25;13.65;;;;;;;14.17;66.68;102166.13;5095614;28;20078;-62
2022/05/07 04:02:00;;;;;;;19.85;13.70;;;;;;;14.19;66.79;102160.88;5095619;28;20028;-62
2022/05/07 04:04:26;;;;;;;18.23;13.30;;;;;;;14.14;66.74;102163.47;5095441;28;20453;-62
2022/05/07 04:06:51;;;;;;;18.10;14.00;;;;;;;14.16;67.07;102159.03;5095681;28;20024;-62
2022/05/07 04:09:16;;;;;;;20.35;14.05;;;;;;;14.15;66.73;102164.34;5094168;28;20024;-62
2022/05/07 04:11:42;;;;;;;18.13;13.07;;;;;;;14.07;67.05;102160.66;5095145;28;20024;-62
2022/05/07 04:14:07;;;;;;;21.05;14.20;;;;;;;13.93;67.45;102158.66;5094591;28;20490;-62
2022/05/07 04:16:32;;;;;;;19.65;13.80;;;;;;;13.86;67.75;102156.75;5094803;28;20024;-62
2022/05/07 04:18:58;;;;;;;18.10;13.70;;;;;;;13.85;67.90;102170.91;5094845;28;20051;-62
2022/05/07 04:21:23;;;;;;;18.25;13.10;;;;;;;13.86;67.92;102167.38;5094627;28;20384;-62
2022/05/07 04:23:48;;;;;;;19.48;13.65;;;;;;;13.84;68.25;102170.88;5094819;28;20024;-62
2022/05/07 04:26:13;;;;;;;20.05;13.80;;;;;;;13.82;68.53;102165.53;5094518;28;20099;-62
2022/05/07 04:28:40;;;;;;;20.88;13.73;;;;;;;13.73;68.84;102176.88;5094509;28;20452;-62
2022/05/07 04:31:05;;;;;;;18.88;13.88;;;;;;;13.59;69.28;102173.06;5094291;28;20535;-62
2022/05/07 04:33:31;;;;;;;22.15;14.13;;;;;;;13.66;69.04;102177.66;5094649;28;20069;-62
2022/05/07 04:35:56;;;;;;;18.98;13.82;;;;;;;13.57;69.47;102172.13;5094421;28;20074;-62
2022/05/07 04:38:21;;;;;;;19.85;14.02;;;;;;;13.65;69.27;102173.16;5094568;28;20111;-62
2022/05/07 04:40:47;;;;;;;25.08;14.75;;;;;;;13.66;69.30;102177.66;5094283;28;20024;-62
2022/05/07 04:43:12;;;;;;;18.52;14.55;;;;;;;13.72;68.98;102188.38;5075908;28;20047;-62
2022/05/07 04:45:38;;;;;;;21.40;14.07;;;;;;;13.82;68.85;102178.81;5094433;28;20028;-62
2022/05/07 04:48:06;;;;;;;23.05;14.65;;;;;;;13.89;68.79;102183.38;5094081;28;20141;-62
2022/05/07 04:50:31;;;;;;;23.65;15.07;;;;;;;14.02;68.12;102182.72;5094286;28;20028;-62
2022/05/07 04:52:57;;;;;;;20.23;14.02;;;;;;;14.10;68.63;102182.88;5093880;28;20052;-62
2022/05/07 04:55:22;;;;;;;16.55;13.52;;;;;;;14.21;68.52;102186.59;5094240;28;20145;-62
2022/05/07 04:57:53;;;;;;;19.88;14.15;;;;;;;14.14;68.34;102192.69;5093934;28;20398;-62
2022/05/07 05:00:20;;;;;;;23.25;15.07;;;;;;;14.05;68.70;102187.22;5093967;28;20078;-62
2022/05/07 05:02:45;;;;;;;19.77;14.45;;;;;;;14.07;68.73;102187.25;5093905;28;20055;-62
2022/05/07 05:05:11;;;;;;;22.30;15.32;;;;;;;14.12;68.72;102188.22;5094049;28;20473;-63
2022/05/07 05:07:36;;;;;;;23.00;14.73;;;;;;;14.23;68.45;102189.31;5093783;28;20362;-62
2022/05/07 05:10:02;;;;;;;24.10;15.82;;;;;;;14.23;68.63;102192.84;5093731;28;20028;-62
2022/05/07 05:12:28;;;;;;;21.95;15.43;;;;;;;14.20;69.12;102200.75;5093848;28;20061;-62
2022/05/07 05:15:03;;;;;;;18.67;14.77;;;;;;;14.24;69.01;102207.94;5093373;28;20082;-62
2022/05/07 05:17:29;;;;;;;24.63;15.77;;;;;;;14.31;69.33;102198.31;5093865;28;20526;-62
2022/05/07 05:19:54;;;;;;;23.45;16.10;;;;;;;14.31;69.25;102203.63;5093229;28;20043;-63
2022/05/07 05:22:20;;;;;;;22.83;16.17;;;;;;;14.43;68.72;102208.22;5093673;28;20028;-61
2022/05/07 05:24:45;;;;;;;22.38;17.13;;;;;;;14.46;68.59;102213.63;5095844;28;20077;-61
2022/05/07 05:27:11;;;;;;;26.67;16.80;;;;;;;14.49;69.39;102222.56;5094688;28;20497;-61
2022/05/07 05:29:36;;;;;;;28.67;17.90;;;;;;;14.57;68.64;102221.81;5093511;28;20111;-61
2022/05/07 05:32:01;;;;;;;29.83;19.15;;;;;;;14.62;68.56;102228.09;5093582;28;20102;-61
2022/05/07 05:34:27;;;;;;;28.85;19.58;;;;;;;14.68;68.15;102234.41;5093382;28;20023;-61
2022/05/07 05:36:52;;;;;;;30.65;20.08;;;;;;;14.71;68.08;102226.47;5093428;28;20124;-61
2022/05/07 05:39:17;;;;;;;30.35;20.63;;;;;;;14.83;67.77;102232.88;5093273;28;20130;-61
2022/05/07 05:41:44;;;;;;;28.63;19.83;;;;;;;14.89;67.53;102231.19;5093095;28;20027;-61
2022/05/07 05:44:10;;;;;;;28.27;18.88;;;;;;;14.93;67.40;102235.69;5093043;28;20425;-63
2022/05/07 05:46:36;;;;;;;29.02;19.83;;;;;;;15.00;67.47;102240.25;5092980;28;20191;-62
2022/05/07 05:49:01;;;;;;;28.63;20.02;;;;;;;15.04;66.96;102241.19;5093454;28;20196;-63
2022/05/07 05:51:27;;;;;;;33.75;21.35;;;;;;;15.12;66.88;102238.63;5092761;28;20047;-63
2022/05/07 05:53:52;;;;;;;35.75;21.88;;;;;;;15.18;66.71;102231.63;5092961;28;20024;-63
2022/05/07 05:56:18;;;;;;;30.70;21.17;;;;;;;15.31;66.11;102235.34;5092931;28;20030;-63
2022/05/07 05:58:44;;;;;;;28.52;20.35;;;;;;;15.37;65.61;102238.06;5092874;28;20024;-63
2022/05/07 06:01:09;;;;;;;31.08;20.15;;;;;;;15.43;65.36;102235.50;5092742;28;20024;-62
2022/05/07 06:03:34;;;;;;;26.42;19.45;;;;;;;15.47;65.14;102248.00;5092971;28;20028;-64
2022/05/07 06:06:00;;;;;;;24.95;18.17;;;;;;;15.57;64.48;102229.47;5092927;28;20115;-63
2022/05/07 06:08:26;;;;;;;27.05;18.67;;;;;;;15.87;63.97;102231.63;5092681;28;20488;-65
2022/05/07 06:10:54;;;;;;;25.25;18.13;;;;;;;16.01;63.45;102229.97;5092735;28;20102;-61
2022/05/07 06:13:19;;;;;;;28.05;18.13;;;;;;;16.16;63.26;102232.81;5092648;28;20479;-62
2022/05/07 06:15:51;;;;;;;32.30;18.48;;;;;;;16.31;62.43;102234.72;5092556;28;20043;-63
2022/05/07 06:18:21;;;;;;;28.02;17.63;;;;;;;16.49;62.35;102234.91;5092775;28;20046;-62
2022/05/07 06:20:49;;;;;;;24.63;17.75;;;;;;;16.57;61.58;102237.63;5092722;28;20028;-62
2022/05/07 06:23:15;;;;;;;34.97;18.33;;;;;;;16.70;60.31;102238.63;5092483;28;20106;-64
2022/05/07 06:28:25;;;;;;;29.83;17.92;;;;;;;17.13;59.93;102242.53;5092703;28;20445;-62
2022/05/07 06:30:51;;;;;;;29.85;17.60;;;;;;;17.23;59.20;102238.13;5074306;28;20108;-62
2022/05/07 06:33:17;;;;;;;29.55;17.05;;;;;;;17.39;58.21;102239.13;5095542;28;20389;-62
2022/05/07 06:35:43;;;;;;;29.27;17.10;;;;;;;17.55;57.71;102238.28;5096671;28;20028;-62
2022/05/07 06:38:09;;;;;;;26.45;16.55;;;;;;;17.68;57.00;102240.09;5096618;28;20028;-62
2022/05/07 06:40:37;;;;;;;27.05;16.15;;;;;;;17.85;56.26;102242.88;5096558;28;20082;-62
2022/05/07 06:43:03;;;;;;;24.92;16.30;;;;;;;17.91;56.20;102234.88;5096387;28;20039;-62
2022/05/07 06:45:28;;;;;;;24.73;16.38;;;;;;;18.01;56.12;102246.50;5096403;28;20024;-62
2022/05/07 06:47:57;;;;;;;25.15;16.50;;;;;;;18.18;55.04;102243.84;5096465;28;20429;-62
2022/05/07 06:50:22;;;;;;;22.88;15.23;;;;;;;18.32;55.46;102241.19;5096236;28;20024;-62
2022/05/07 06:52:53;;;;;;;25.02;15.35;;;;;;;18.55;54.41;102243.91;5096284;28;20044;-62
2022/05/07 06:55:19;;;;;;;25.17;15.73;;;;;;;18.62;53.74;102243.88;5078038;28;20384;-62
2022/05/07 06:57:46;;;;;;;25.75;15.85;;;;;;;18.81;53.61;102241.25;5096154;28;20511;-62
2022/05/07 07:00:13;;;;;;;25.40;17.27;;;;;;;18.91;53.59;102229.59;5096485;28;20121;-62
2022/05/07 07:02:42;;;;;;;27.13;16.48;;;;;;;19.16;52.64;102244.75;5096466;28;20099;-62
2022/05/07 07:05:08;;;;;;;28.60;15.73;;;;;;;19.25;51.46;102246.50;5078179;28;20449;-62
2022/05/07 07:07:33;;;;;;;27.30;15.80;;;;;;;19.49;51.04;102240.19;5096812;28;20020;-62
2022/05/07 07:09:59;;;;;;;29.48;15.45;;;;;;;19.60;51.51;102245.47;5096179;28;20496;-62
2022/05/07 07:12:25;;;;;;;27.45;15.60;;;;;;;19.70;50.92;102245.50;5095758;28;20047;-62
2022/05/07 07:14:50;;;;;;;24.67;15.95;;;;;;;19.72;50.97;102242.78;5095972;28;20020;-62
2022/05/07 07:17:17;;;;;;;26.52;16.70;;;;;;;19.85;51.10;102247.19;5095823;28;20024;-62
2022/05/07 07:19:43;;;;;;;26.23;15.77;;;;;;;20.05;51.00;102247.09;5095933;28;20024;-62
2022/05/07 07:22:09;;;;;;;25.90;16.33;;;;;;;20.15;49.91;102240.75;5095775;28;20092;-62
2022/05/07 07:24:34;;;;;;;23.50;16.23;;;;;;;20.18;50.15;102242.53;5095777;28;20020;-62
2022/05/07 07:27:00;;;;;;;28.63;17.05;;;;;;;20.43;49.53;102260.25;5095559;28;20048;-62
2022/05/07 07:29:25;;;;;;;26.08;16.45;;;;;;;20.52;49.19;102253.06;5095516;28;20484;-62
2022/05/07 07:31:51;;;;;;;28.08;17.02;;;;;;;20.73;49.81;102247.50;5095544;28;20035;-62
2022/05/07 07:34:17;;;;;;;29.45;16.65;;;;;;;20.93;48.47;102248.19;5095501;28;20031;-62
2022/05/07 07:36:46;;;;;;;29.63;17.45;;;;;;;21.01;47.96;102249.00;5077484;28;20502;-62
2022/05/07 07:39:12;;;;;;;26.35;16.50;;;;;;;21.14;47.17;102248.88;5095354;28;20052;-62
2022/05/07 07:41:37;;;;;;;29.08;17.20;;;;;;;21.24;46.96;102240.72;5095349;28;20056;-65
2022/05/07 07:44:02;;;;;;;25.00;17.27;;;;;;;21.32;46.43;102242.44;5093796;28;20438;-63
2022/05/07 07:49:13;;;;;;;29.55;17.65;;;;;;;21.69;46.47;102235.69;5095606;28;20492;-62
2022/05/07 07:51:39;;;;;;;24.92;17.13;;;;;;;21.67;46.18;102244.69;5077410;28;20071;-62
2022/05/07 07:54:05;;;;;;;26.80;16.65;;;;;;;21.78;44.72;102239.19;5095107;28;20068;-62
2022/05/07 07:56:30;;;;;;;30.25;16.42;;;;;;;22.03;43.57;102240.63;5095018;28;20020;-63
2022/05/07 07:58:55;;;;;;;26.55;16.52;;;;;;;22.16;44.30;102242.25;5095049;28;20073;-62
2022/05/07 08:01:21;;;;;;;26.55;16.65;;;;;;;22.49;43.01;102242.63;5094984;28;20077;-63
2022/05/07 08:03:46;;;;;;;24.05;16.08;;;;;;;22.71;42.06;102233.25;5095016;28;20030;-63
2022/05/07 08:06:12;;;;;;;21.90;15.65;;;;;;;23.02;41.79;102239.94;5094866;28;20027;-62
2022/05/07 08:14:06;;;;;;;24.73;16.02;;;;;;;23.54;40.00;102237.06;5094878;28;20082;-62
2022/05/07 08:16:32;;;;;;;33.50;16.85;;;;;;;23.70;40.03;102243.97;5094656;28;20044;-63
2022/05/07 08:18:57;;;;;;;28.85;16.35;;;;;;;23.95;39.92;102228.09;5094891;28;20427;-63
2022/05/07 08:21:23;;;;;;;28.13;15.98;;;;;;;24.19;39.34;102234.72;5094629;28;20521;-63
2022/05/07 08:23:49;;;;;;;28.80;17.33;;;;;;;24.27;38.62;102236.38;5094530;28;20020;-64
2022/05/07 08:26:14;;;;;;;24.90;17.42;;;;;;;24.22;38.21;102239.19;5094899;28;20028;-64
2022/05/07 08:28:40;;;;;;;30.20;18.38;;;;;;;24.09;39.00;102240.41;5094809;28;20381;-63
2022/05/07 08:31:06;;;;;;;27.77;18.02;;;;;;;24.04;38.85;102240.50;5094477;28;20030;-63
2022/05/07 08:33:32;;;;;;;29.92;18.35;;;;;;;23.80;38.75;102239.25;5094465;28;20461;-63
2022/05/07 08:35:58;;;;;;;30.23;18.40;;;;;;;23.66;39.77;102244.94;5094351;28;20557;-63
2022/05/07 08:38:24;;;;;;;27.15;17.77;;;;;;;23.73;40.00;102243.03;5094218;28;20028;-62
2022/05/07 08:40:50;;;;;;;27.25;17.63;;;;;;;23.75;39.58;102251.97;5094514;28;20024;-66
2022/05/07 08:43:17;;;;;;;31.08;18.65;;;;;;;23.74;39.92;102247.50;5094399;28;20081;-62
2022/05/07 08:45:44;;;;;;;27.27;18.33;;;;;;;23.78;39.69;102251.91;5094451;28;20107;-63
2022/05/07 08:48:10;;;;;;;28.38;19.15;;;;;;;23.80;39.12;102247.34;5094221;28;20082;-63
2022/05/07 08:50:37;;;;;;;27.42;18.52;;;;;;;24.18;39.50;102240.19;5094207;28;20544;-62
2022/05/07 08:53:03;;;;;;;27.98;19.55;;;;;;;24.57;38.92;102250.97;5093847;28;20072;-63
2022/05/07 08:55:28;;;;;;;30.33;20.05;;;;;;;25.05;38.28;102240.66;5093854;28;20099;-63
2022/05/07 08:57:54;;;;;;;32.70;19.95;;;;;;;25.22;37.18;102235.75;5094351;28;20403;-63
2022/05/07 09:00:21;;;;;;;30.23;20.50;;;;;;;25.62;36.13;102236.41;5075956;28;20035;-63
2022/05/07 09:02:48;;;;;;;27.90;20.30;;;;;;;25.78;35.85;102236.81;5094140;28;20059;-63
2022/05/07 09:05:15;;;;;;;28.65;19.58;;;;;;;25.79;35.11;102239.50;5093799;28;20024;-60
2022/05/07 09:07:54;;;;;;;29.00;19.52;;;;;;;26.04;36.69;102239.63;5093810;28;20059;-62
2022/05/07 09:10:20;;;;;;;27.83;19.83;;;;;;;26.01;35.09;102228.88;5093841;28;20070;-63
2022/05/07 09:12:46;;;;;;;31.35;19.65;;;;;;;26.03;34.75;102236.97;5094081;28;20020;-63
2022/05/07 09:15:12;;;;;;;31.73;19.25;;;;;;;26.07;35.05;102234.09;5093751;28;20024;-63
2022/05/07 09:17:37;;;;;;;23.85;17.15;;;;;;;26.36;34.25;102233.16;5093784;28;20432;-62
2022/05/07 09:20:11;;;;;;;46.97;19.48;;;;;;;26.36;35.17;102230.44;5093685;28;20028;-63
2022/05/07 09:22:55;;;;;;;30.85;18.75;;;;;;;26.68;34.80;102225.78;5075246;28;20024;-63
2022/05/07 09:25:23;;;;;;;31.80;17.25;;;;;;;26.99;32.83;102232.84;5093529;28;20419;-63
2022/05/07 09:27:55;;;;;;;24.25;17.60;;;;;;;27.03;32.00;102223.66;5093785;28;20028;-63
2022/05/07 09:30:25;;;;;;;26.67;17.50;;;;;;;27.12;31.91;102229.69;5093577;28;20035;-63
2022/05/07 09:32:54;;;;;;;28.33;17.75;;;;;;;27.25;32.13;102232.81;5093431;28;20067;-63
2022/05/07 09:38:05;;;;;;;27.05;17.65;;;;;;;27.27;32.29;102230.94;5093544;28;20538;-63
2022/05/07 09:40:32;;;;;;;26.20;17.77;;;;;;;27.58;31.76;102222.53;5093308;28;20431;-63
2022/05/07 09:42:58;;;;;;;32.05;18.33;;;;;;;27.60;31.53;102223.34;5093159;28;20131;-63
2022/05/07 09:45:27;;;;;;;28.08;17.83;;;;;;;27.74;31.58;102233.69;5093411;28;20118;-63
2022/05/07 09:48:00;;;;;;;30.65;16.98;;;;;;;27.61;31.00;102221.50;5093017;28;20389;-63
2022/05/07 09:58:37;;;;;;;26.38;17.02;;;;;;;27.46;31.32;102239.28;5092975;28;20165;-63
2022/05/07 10:01:21;;;;;;;28.98;16.67;;;;;;;27.66;30.50;102235.78;5093259;28;20039;-63
2022/05/07 10:03:52;;;;;;;22.35;15.65;;;;;;;27.70;31.33;102232.00;5093367;28;20035;-63
2022/05/07 10:06:49;;;;;;;23.08;15.68;;;;;;;27.70;32.63;102227.44;5092285;28;20417;-63
2022/05/07 10:09:36;;;;;;;22.88;15.65;;;;;;;28.02;31.61;102213.59;5092962;28;20028;-63
2022/05/07 10:12:03;;;;;;;23.55;14.13;;;;;;;28.53;30.77;102229.59;5093113;28;20031;-63
2022/05/07 10:14:31;;;;;;;25.13;14.10;;;;;;;28.76;29.11;102227.72;5092888;28;20020;-63
2022/05/07 10:16:57;;;;;;;19.50;13.05;;;;;;;28.92;27.91;102226.97;5093000;28;20112;-63
2022/05/07 10:19:34;;;;;;;21.48;12.18;;;;;;;29.26;28.46;102213.72;5092592;28;20020;-63
2022/05/07 10:22:00;;;;;;;19.77;11.13;;;;;;;29.61;26.31;102212.97;5092805;28;20054;-63
2022/05/07 10:24:25;;;;;;;19.90;12.05;;;;;;;29.68;26.71;102211.75;5092973;28;20473;-63
2022/05/07 10:26:50;;;;;;;19.05;10.68;;;;;;;29.85;25.38;102210.03;5092944;28;20035;-63
2022/05/07 10:29:25;;;;;;;18.52;11.27;;;;;;;29.83;26.26;102201.94;5093140;28;20107;-63
2022/05/07 10:32:00;;;;;;;18.33;11.00;;;;;;;30.08;25.63;102204.34;5093043;28;20059;-64
2022/05/07 10:34:26;;;;;;;16.70;10.10;;;;;;;30.06;24.99;102214.41;5092866;28;20461;-63
2022/05/07 10:37:06;;;;;;;21.80;9.70;;;;;;;30.27;24.80;102211.63;5092893;28;20045;-63
2022/05/07 10:39:33;;;;;;;14.48;9.93;;;;;;;30.29;24.13;102198.81;5092616;28;20024;-63
2022/05/07 10:42:03;;;;;;;18.10;10.23;;;;;;;30.35;24.18;102202.09;5092667;28;20035;-65
2022/05/07 10:44:34;;;;;;;17.90;10.57;;;;;;;30.41;25.02;102201.78;5092519;28;20083;-64
2022/05/07 10:47:13;;;;;;;;;;;;;;;30.80;26.37;102203.44;5093061;28;20362;-63
2022/05/07 10:50:11;;;;;;;16.92;10.07;;;;;;;30.72;24.80;102208.41;5092393;28;20225;-64
2022/05/07 10:52:36;;;;;;;14.20;9.63;;;;;;;30.58;24.23;102198.19;5092536;28;20044;-64
2022/05/07 10:55:13;;;;;;;15.73;7.78;;;;;;;30.68;21.78;102188.56;5092342;28;20023;-63
2022/05/07 10:57:46;;;;;;;18.13;7.95;;;;;;;30.43;23.67;102185.34;5092496;28;20020;-63
2022/05/07 11:00:17;;;;;;;11.85;7.85;;;;;;;30.37;23.68;102182.94;5092817;28;20036;-63
2022/05/07 11:02:43;;;;;;;14.98;10.18;;;;;;;30.37;23.73;102186.53;5092776;28;20365;-63
2022/05/07 11:05:09;;;;;;;16.27;9.43;;;;;;;31.04;24.23;102193.03;5092460;28;20024;-63
2022/05/07 11:07:35;;;;;;;20.25;10.45;;;;;;;31.22;24.72;102182.06;5092438;28;20061;-64
2022/05/07 11:10:02;;;;;;;16.00;9.98;;;;;;;31.02;24.97;102186.78;5092214;28;20032;-63
2022/05/07 11:12:28;;;;;;;18.88;10.00;;;;;;;30.61;24.68;102184.38;5092394;28;20114;-63
2022/05/07 11:14:54;;;;;;;16.67;9.70;;;;;;;30.66;24.40;102182.31;5092167;28;20052;-63
2022/05/07 11:17:35;;;;;;;15.02;9.60;;;;;;;30.92;25.31;102193.69;5092323;28;20028;-64
2022/05/07 11:20:01;;;;;;;15.95;9.40;;;;;;;30.93;23.22;102190.03;5095976;28;20028;-64
2022/05/07 11:22:30;;;;;;;14.23;8.05;;;;;;;31.16;25.06;102183.31;5095975;28;20048;-64
2022/05/07 11:25:00;;;;;;;17.63;8.77;;;;;;;31.30;23.69;102182.56;5096066;28;20035;-64
2022/05/07 11:27:32;;;;;;;15.57;8.40;;;;;;;31.50;22.36;102182.34;5095995;28;20027;-64
2022/05/07 11:30:12;;;;;;;15.13;8.23;;;;;;;31.89;20.47;102192.88;5095830;28;20078;-64
2022/05/07 11:32:42;;;;;;;14.90;8.48;;;;;;;31.88;22.19;102179.31;5095855;28;20476;-64
2022/05/07 11:35:08;;;;;;;16.58;8.13;;;;;;;31.88;22.45;102171.13;5096035;28;20358;-64
2022/05/07 11:37:39;;;;;;;14.45;7.65;;;;;;;31.48;23.20;102184.31;5095809;28;20385;-64
2022/05/07 11:40:05;;;;;;;13.45;7.80;;;;;;;31.23;22.54;102181.13;5095892;28;20063;-64
2022/05/07 11:42:31;;;;;;;12.77;7.68;;;;;;;30.51;23.49;102182.22;5095762;28;20603;-64
2022/05/07 11:47:54;;;;;;;17.80;9.15;;;;;;;29.46;25.37;102172.81;5095883;28;20382;-64